sensor_id;sensor_type;location;lat;lon;timestamp;P1;durP1;ratioP1;P2;durP2;ratioP2
11924;SDS011;6022;48.768;18.608;2022-07-06T00:01:53;2.93;;;2.17;;
11924;SDS011;6022;48.768;18.608;2022-07-06T00:04:21;2.33;;;2.10;;
11924;SDS011;6022;48.768;18.608;2022-07-06T00:06:49;1.73;;;1.23;;
11924;SDS011;6022;48.768;18.608;2022-07-06T00:09:16;1.90;;;1.80;;
11924;SDS011;6022;48.768;18.608;2022-07-06T00:11:44;3.10;;;2.20;;
11924;SDS011;6022;48.768;18.608;2022-07-06T00:14:11;3.97;;;2.30;;
11924;SDS011;6022;48.768;18.608;2022-07-06T00:16:39;2.13;;;2.00;;
11924;SDS011;6022;48.768;18.608;2022-07-06T00:19:07;4.30;;;2.27;;
11924;SDS011;6022;48.768;18.608;2022-07-06T00:21:34;2.30;;;2.10;;
11924;SDS011;6022;48.768;18.608;2022-07-06T00:24:02;2.87;;;2.37;;
11924;SDS011;6022;48.768;18.608;2022-07-06T00:26:30;3.37;;;2.40;;
11924;SDS011;6022;48.768;18.608;2022-07-06T00:28:57;2.53;;;2.33;;
11924;SDS011;6022;48.768;18.608;2022-07-06T00:31:25;3.27;;;2.67;;
11924;SDS011;6022;48.768;18.608;2022-07-06T00:33:53;6.97;;;2.50;;
11924;SDS011;6022;48.768;18.608;2022-07-06T00:36:20;3.00;;;2.60;;
11924;SDS011;6022;48.768;18.608;2022-07-06T00:38:47;3.30;;;1.80;;
11924;SDS011;6022;48.768;18.608;2022-07-06T00:41:16;2.43;;;1.87;;
11924;SDS011;6022;48.768;18.608;2022-07-06T00:43:47;2.93;;;2.20;;
11924;SDS011;6022;48.768;18.608;2022-07-06T00:46:27;3.00;;;2.50;;
11924;SDS011;6022;48.768;18.608;2022-07-06T00:48:58;2.00;;;1.90;;
11924;SDS011;6022;48.768;18.608;2022-07-06T00:51:31;2.73;;;2.33;;
11924;SDS011;6022;48.768;18.608;2022-07-06T00:54:03;3.70;;;2.43;;
11924;SDS011;6022;48.768;18.608;2022-07-06T00:56:31;6.40;;;2.57;;
11924;SDS011;6022;48.768;18.608;2022-07-06T00:59:01;3.30;;;2.23;;
11924;SDS011;6022;48.768;18.608;2022-07-06T01:01:29;4.23;;;2.43;;
11924;SDS011;6022;48.768;18.608;2022-07-06T01:03:59;4.07;;;2.50;;
11924;SDS011;6022;48.768;18.608;2022-07-06T01:06:27;3.13;;;2.33;;
11924;SDS011;6022;48.768;18.608;2022-07-06T01:08:54;4.07;;;2.90;;
11924;SDS011;6022;48.768;18.608;2022-07-06T01:11:22;4.57;;;2.60;;
11924;SDS011;6022;48.768;18.608;2022-07-06T01:13:55;2.77;;;2.57;;
11924;SDS011;6022;48.768;18.608;2022-07-06T01:16:24;2.40;;;2.30;;
11924;SDS011;6022;48.768;18.608;2022-07-06T01:18:54;3.27;;;2.97;;
11924;SDS011;6022;48.768;18.608;2022-07-06T01:21:21;4.07;;;2.70;;
11924;SDS011;6022;48.768;18.608;2022-07-06T01:23:54;3.20;;;2.93;;
11924;SDS011;6022;48.768;18.608;2022-07-06T01:26:21;3.00;;;2.80;;
11924;SDS011;6022;48.768;18.608;2022-07-06T01:28:50;4.43;;;3.50;;
11924;SDS011;6022;48.768;18.608;2022-07-06T01:31:23;4.23;;;3.93;;
11924;SDS011;6022;48.768;18.608;2022-07-06T01:33:53;4.00;;;3.70;;
11924;SDS011;6022;48.768;18.608;2022-07-06T01:36:23;3.73;;;3.23;;
11924;SDS011;6022;48.768;18.608;2022-07-06T01:38:52;3.40;;;3.10;;
11924;SDS011;6022;48.768;18.608;2022-07-06T01:41:23;3.87;;;3.37;;
11924;SDS011;6022;48.768;18.608;2022-07-06T01:43:51;4.43;;;3.33;;
11924;SDS011;6022;48.768;18.608;2022-07-06T01:46:22;5.90;;;3.80;;
11924;SDS011;6022;48.768;18.608;2022-07-06T01:48:52;4.73;;;3.30;;
11924;SDS011;6022;48.768;18.608;2022-07-06T01:51:23;3.93;;;3.63;;
11924;SDS011;6022;48.768;18.608;2022-07-06T01:53:50;5.60;;;3.40;;
11924;SDS011;6022;48.768;18.608;2022-07-06T01:56:22;7.83;;;4.10;;
11924;SDS011;6022;48.768;18.608;2022-07-06T01:58:49;4.30;;;3.57;;
11924;SDS011;6022;48.768;18.608;2022-07-06T02:01:18;6.07;;;4.17;;
11924;SDS011;6022;48.768;18.608;2022-07-06T02:03:47;4.87;;;4.00;;
11924;SDS011;6022;48.768;18.608;2022-07-06T02:06:15;4.57;;;4.17;;
11924;SDS011;6022;48.768;18.608;2022-07-06T02:08:42;4.40;;;4.00;;
11924;SDS011;6022;48.768;18.608;2022-07-06T02:11:10;5.93;;;3.80;;
11924;SDS011;6022;48.768;18.608;2022-07-06T02:13:38;4.70;;;4.17;;
11924;SDS011;6022;48.768;18.608;2022-07-06T02:16:06;6.63;;;4.50;;
11924;SDS011;6022;48.768;18.608;2022-07-06T02:18:33;4.43;;;4.03;;
11924;SDS011;6022;48.768;18.608;2022-07-06T02:21:04;6.60;;;5.00;;
11924;SDS011;6022;48.768;18.608;2022-07-06T02:23:32;6.77;;;4.50;;
11924;SDS011;6022;48.768;18.608;2022-07-06T02:26:01;7.63;;;4.73;;
11924;SDS011;6022;48.768;18.608;2022-07-06T02:28:30;9.80;;;4.67;;
11924;SDS011;6022;48.768;18.608;2022-07-06T02:30:58;4.37;;;3.97;;
11924;SDS011;6022;48.768;18.608;2022-07-06T02:33:25;5.73;;;3.97;;
11924;SDS011;6022;48.768;18.608;2022-07-06T02:35:55;7.63;;;4.93;;
11924;SDS011;6022;48.768;18.608;2022-07-06T02:38:23;5.33;;;4.60;;
11924;SDS011;6022;48.768;18.608;2022-07-06T02:40:51;4.87;;;4.47;;
11924;SDS011;6022;48.768;18.608;2022-07-06T02:43:19;6.20;;;4.80;;
11924;SDS011;6022;48.768;18.608;2022-07-06T02:45:46;6.53;;;5.20;;
11924;SDS011;6022;48.768;18.608;2022-07-06T02:48:14;7.53;;;5.10;;
11924;SDS011;6022;48.768;18.608;2022-07-06T02:50:41;8.50;;;4.97;;
11924;SDS011;6022;48.768;18.608;2022-07-06T02:53:09;12.30;;;5.47;;
11924;SDS011;6022;48.768;18.608;2022-07-06T02:55:36;6.50;;;5.30;;
11924;SDS011;6022;48.768;18.608;2022-07-06T02:58:04;9.27;;;5.10;;
11924;SDS011;6022;48.768;18.608;2022-07-06T03:00:31;5.53;;;5.03;;
11924;SDS011;6022;48.768;18.608;2022-07-06T03:02:59;6.80;;;5.20;;
11924;SDS011;6022;48.768;18.608;2022-07-06T03:05:27;9.93;;;5.90;;
11924;SDS011;6022;48.768;18.608;2022-07-06T03:07:57;10.33;;;5.77;;
11924;SDS011;6022;48.768;18.608;2022-07-06T03:10:25;9.93;;;6.30;;
11924;SDS011;6022;48.768;18.608;2022-07-06T03:12:55;6.73;;;5.63;;
11924;SDS011;6022;48.768;18.608;2022-07-06T03:15:25;10.43;;;6.13;;
11924;SDS011;6022;48.768;18.608;2022-07-06T03:17:53;8.07;;;6.43;;
11924;SDS011;6022;48.768;18.608;2022-07-06T03:20:21;8.23;;;5.77;;
11924;SDS011;6022;48.768;18.608;2022-07-06T03:22:48;7.67;;;5.93;;
11924;SDS011;6022;48.768;18.608;2022-07-06T03:25:15;7.20;;;6.50;;
11924;SDS011;6022;48.768;18.608;2022-07-06T03:27:43;8.40;;;6.07;;
11924;SDS011;6022;48.768;18.608;2022-07-06T03:30:10;10.53;;;6.80;;
11924;SDS011;6022;48.768;18.608;2022-07-06T03:32:40;11.73;;;6.57;;
11924;SDS011;6022;48.768;18.608;2022-07-06T03:35:07;14.03;;;6.27;;
11924;SDS011;6022;48.768;18.608;2022-07-06T03:37:35;9.93;;;6.07;;
11924;SDS011;6022;48.768;18.608;2022-07-06T03:40:03;11.00;;;6.23;;
11924;SDS011;6022;48.768;18.608;2022-07-06T03:42:31;10.33;;;6.73;;
11924;SDS011;6022;48.768;18.608;2022-07-06T03:44:58;9.60;;;7.00;;
11924;SDS011;6022;48.768;18.608;2022-07-06T03:47:26;8.37;;;6.57;;
11924;SDS011;6022;48.768;18.608;2022-07-06T03:49:53;7.37;;;5.57;;
11924;SDS011;6022;48.768;18.608;2022-07-06T03:52:20;7.43;;;6.63;;
11924;SDS011;6022;48.768;18.608;2022-07-06T03:54:48;11.80;;;7.63;;
11924;SDS011;6022;48.768;18.608;2022-07-06T03:57:16;9.40;;;7.53;;
11924;SDS011;6022;48.768;18.608;2022-07-06T03:59:43;10.20;;;6.87;;
11924;SDS011;6022;48.768;18.608;2022-07-06T04:02:10;7.90;;;7.03;;
11924;SDS011;6022;48.768;18.608;2022-07-06T04:04:38;9.67;;;7.97;;
11924;SDS011;6022;48.768;18.608;2022-07-06T04:07:05;7.57;;;6.87;;
11924;SDS011;6022;48.768;18.608;2022-07-06T04:09:32;9.30;;;6.70;;
11924;SDS011;6022;48.768;18.608;2022-07-06T04:12:03;12.57;;;6.50;;
11924;SDS011;6022;48.768;18.608;2022-07-06T04:14:31;6.40;;;5.83;;
11924;SDS011;6022;48.768;18.608;2022-07-06T04:16:58;7.27;;;6.33;;
11924;SDS011;6022;48.768;18.608;2022-07-06T04:19:46;8.23;;;7.20;;
11924;SDS011;6022;48.768;18.608;2022-07-06T04:22:13;10.67;;;7.03;;
11924;SDS011;6022;48.768;18.608;2022-07-06T04:24:41;8.60;;;7.47;;
11924;SDS011;6022;48.768;18.608;2022-07-06T04:27:09;9.57;;;7.50;;
11924;SDS011;6022;48.768;18.608;2022-07-06T04:29:37;11.57;;;7.03;;
11924;SDS011;6022;48.768;18.608;2022-07-06T04:32:07;10.20;;;7.23;;
11924;SDS011;6022;48.768;18.608;2022-07-06T04:34:34;8.37;;;6.70;;
11924;SDS011;6022;48.768;18.608;2022-07-06T04:37:02;10.17;;;7.20;;
11924;SDS011;6022;48.768;18.608;2022-07-06T04:39:30;9.97;;;7.90;;
11924;SDS011;6022;48.768;18.608;2022-07-06T04:41:58;9.37;;;7.90;;
11924;SDS011;6022;48.768;18.608;2022-07-06T04:44:25;10.00;;;6.87;;
11924;SDS011;6022;48.768;18.608;2022-07-06T04:46:53;9.07;;;7.40;;
11924;SDS011;6022;48.768;18.608;2022-07-06T04:49:20;8.70;;;7.07;;
11924;SDS011;6022;48.768;18.608;2022-07-06T04:51:48;9.00;;;6.33;;
11924;SDS011;6022;48.768;18.608;2022-07-06T04:54:15;11.80;;;7.07;;
11924;SDS011;6022;48.768;18.608;2022-07-06T04:56:42;8.50;;;6.07;;
11924;SDS011;6022;48.768;18.608;2022-07-06T04:59:10;9.57;;;6.47;;
11924;SDS011;6022;48.768;18.608;2022-07-06T05:01:37;8.77;;;6.80;;
11924;SDS011;6022;48.768;18.608;2022-07-06T05:04:04;7.90;;;7.10;;
11924;SDS011;6022;48.768;18.608;2022-07-06T05:06:32;7.30;;;6.47;;
11924;SDS011;6022;48.768;18.608;2022-07-06T05:09:00;39.77;;;8.43;;
11924;SDS011;6022;48.768;18.608;2022-07-06T05:11:33;11.70;;;6.50;;
11924;SDS011;6022;48.768;18.608;2022-07-06T05:14:01;6.83;;;5.87;;
11924;SDS011;6022;48.768;18.608;2022-07-06T05:16:30;18.20;;;6.70;;
11924;SDS011;6022;48.768;18.608;2022-07-06T05:18:58;5.20;;;4.70;;
11924;SDS011;6022;48.768;18.608;2022-07-06T05:21:26;9.90;;;5.23;;
11924;SDS011;6022;48.768;18.608;2022-07-06T05:23:53;36.77;;;6.80;;
11924;SDS011;6022;48.768;18.608;2022-07-06T05:26:20;5.27;;;4.73;;
11924;SDS011;6022;48.768;18.608;2022-07-06T05:28:48;7.97;;;5.47;;
11924;SDS011;6022;48.768;18.608;2022-07-06T05:31:17;5.63;;;5.10;;
11924;SDS011;6022;48.768;18.608;2022-07-06T05:33:44;6.17;;;5.47;;
11924;SDS011;6022;48.768;18.608;2022-07-06T05:36:12;5.43;;;4.93;;
11924;SDS011;6022;48.768;18.608;2022-07-06T05:38:39;5.93;;;5.43;;
11924;SDS011;6022;48.768;18.608;2022-07-06T05:41:07;8.40;;;5.53;;
11924;SDS011;6022;48.768;18.608;2022-07-06T05:43:37;5.73;;;5.13;;
11924;SDS011;6022;48.768;18.608;2022-07-06T05:46:05;5.80;;;5.40;;
11924;SDS011;6022;48.768;18.608;2022-07-06T05:48:32;6.03;;;5.43;;
11924;SDS011;6022;48.768;18.608;2022-07-06T05:51:18;12.03;;;5.53;;
11924;SDS011;6022;48.768;18.608;2022-07-06T05:53:46;5.77;;;5.17;;
11924;SDS011;6022;48.768;18.608;2022-07-06T05:56:14;5.97;;;5.40;;
11924;SDS011;6022;48.768;18.608;2022-07-06T05:58:41;7.33;;;5.47;;
11924;SDS011;6022;48.768;18.608;2022-07-06T06:01:09;6.50;;;5.43;;
11924;SDS011;6022;48.768;18.608;2022-07-06T06:03:36;9.40;;;5.87;;
11924;SDS011;6022;48.768;18.608;2022-07-06T06:06:04;6.27;;;5.83;;
11924;SDS011;6022;48.768;18.608;2022-07-06T06:08:31;6.13;;;5.63;;
11924;SDS011;6022;48.768;18.608;2022-07-06T06:10:59;6.70;;;5.50;;
11924;SDS011;6022;48.768;18.608;2022-07-06T06:13:32;5.93;;;5.53;;
11924;SDS011;6022;48.768;18.608;2022-07-06T06:15:59;5.70;;;5.20;;
11924;SDS011;6022;48.768;18.608;2022-07-06T06:18:27;7.10;;;5.53;;
11924;SDS011;6022;48.768;18.608;2022-07-06T06:20:55;5.70;;;5.27;;
11924;SDS011;6022;48.768;18.608;2022-07-06T06:23:23;5.27;;;4.87;;
11924;SDS011;6022;48.768;18.608;2022-07-06T06:25:50;7.43;;;5.40;;
11924;SDS011;6022;48.768;18.608;2022-07-06T06:28:17;5.73;;;5.23;;
11924;SDS011;6022;48.768;18.608;2022-07-06T06:30:45;6.43;;;5.07;;
11924;SDS011;6022;48.768;18.608;2022-07-06T06:35:45;6.00;;;5.50;;
11924;SDS011;6022;48.768;18.608;2022-07-06T06:38:16;6.00;;;5.30;;
11924;SDS011;6022;48.768;18.608;2022-07-06T06:40:54;6.03;;;5.43;;
11924;SDS011;6022;48.768;18.608;2022-07-06T06:43:21;9.80;;;7.33;;
11924;SDS011;6022;48.768;18.608;2022-07-06T06:45:49;11.03;;;10.10;;
11924;SDS011;6022;48.768;18.608;2022-07-06T06:48:16;6.33;;;5.73;;
11924;SDS011;6022;48.768;18.608;2022-07-06T06:50:45;6.85;;;5.78;;
11924;SDS011;6022;48.768;18.608;2022-07-06T06:53:12;7.13;;;5.05;;
11924;SDS011;6022;48.768;18.608;2022-07-06T06:55:40;8.25;;;5.40;;
11924;SDS011;6022;48.768;18.608;2022-07-06T06:58:07;5.70;;;5.20;;
11924;SDS011;6022;48.768;18.608;2022-07-06T07:00:35;5.55;;;5.15;;
11924;SDS011;6022;48.768;18.608;2022-07-06T07:03:02;5.63;;;5.22;;
11924;SDS011;6022;48.768;18.608;2022-07-06T07:05:29;6.07;;;5.47;;
11924;SDS011;6022;48.768;18.608;2022-07-06T07:07:57;8.67;;;5.87;;
11924;SDS011;6022;48.768;18.608;2022-07-06T07:10:30;6.30;;;5.70;;
11924;SDS011;6022;48.768;18.608;2022-07-06T07:12:58;9.20;;;6.30;;
11924;SDS011;6022;48.768;18.608;2022-07-06T07:15:26;6.00;;;5.50;;
11924;SDS011;6022;48.768;18.608;2022-07-06T07:17:54;5.87;;;5.27;;
11924;SDS011;6022;48.768;18.608;2022-07-06T07:20:21;6.80;;;5.17;;
11924;SDS011;6022;48.768;18.608;2022-07-06T07:22:49;12.07;;;6.70;;
11924;SDS011;6022;48.768;18.608;2022-07-06T07:25:17;8.67;;;6.33;;
11924;SDS011;6022;48.768;18.608;2022-07-06T07:27:44;9.27;;;5.97;;
11924;SDS011;6022;48.768;18.608;2022-07-06T07:30:12;11.68;;;6.35;;
11924;SDS011;6022;48.768;18.608;2022-07-06T07:32:39;11.15;;;7.30;;
11924;SDS011;6022;48.768;18.608;2022-07-06T07:35:10;10.37;;;6.77;;
11924;SDS011;6022;48.768;18.608;2022-07-06T07:37:37;11.00;;;6.13;;
11924;SDS011;6022;48.768;18.608;2022-07-06T07:40:05;5.90;;;5.40;;
11924;SDS011;6022;48.768;18.608;2022-07-06T07:42:34;19.53;;;8.40;;
11924;SDS011;6022;48.768;18.608;2022-07-06T07:45:02;6.73;;;5.53;;
11924;SDS011;6022;48.768;18.608;2022-07-06T07:47:29;7.73;;;6.13;;
11924;SDS011;6022;48.768;18.608;2022-07-06T07:49:57;21.57;;;8.90;;
11924;SDS011;6022;48.768;18.608;2022-07-06T07:52:24;12.27;;;6.47;;
11924;SDS011;6022;48.768;18.608;2022-07-06T07:54:51;23.47;;;10.23;;
11924;SDS011;6022;48.768;18.608;2022-07-06T07:57:39;19.17;;;7.53;;
11924;SDS011;6022;48.768;18.608;2022-07-06T08:00:06;11.30;;;7.00;;
11924;SDS011;6022;48.768;18.608;2022-07-06T08:02:35;24.57;;;8.30;;
11924;SDS011;6022;48.768;18.608;2022-07-06T08:05:02;6.97;;;6.20;;
11924;SDS011;6022;48.768;18.608;2022-07-06T08:07:31;8.83;;;7.07;;
11924;SDS011;6022;48.768;18.608;2022-07-06T08:09:59;6.20;;;5.63;;
11924;SDS011;6022;48.768;18.608;2022-07-06T08:12:26;12.33;;;7.17;;
11924;SDS011;6022;48.768;18.608;2022-07-06T08:14:53;26.23;;;7.80;;
11924;SDS011;6022;48.768;18.608;2022-07-06T08:17:22;6.97;;;5.67;;
11924;SDS011;6022;48.768;18.608;2022-07-06T08:19:49;12.00;;;8.60;;
11924;SDS011;6022;48.768;18.608;2022-07-06T08:22:17;7.20;;;5.70;;
11924;SDS011;6022;48.768;18.608;2022-07-06T08:24:44;7.70;;;6.03;;
11924;SDS011;6022;48.768;18.608;2022-07-06T08:27:12;10.67;;;6.37;;
11924;SDS011;6022;48.768;18.608;2022-07-06T08:29:40;11.77;;;6.27;;
11924;SDS011;6022;48.768;18.608;2022-07-06T08:32:08;7.27;;;5.97;;
11924;SDS011;6022;48.768;18.608;2022-07-06T08:34:44;18.47;;;7.83;;
11924;SDS011;6022;48.768;18.608;2022-07-06T08:37:11;6.90;;;5.10;;
11924;SDS011;6022;48.768;18.608;2022-07-06T08:39:38;5.93;;;5.17;;
11924;SDS011;6022;48.768;18.608;2022-07-06T08:42:07;7.20;;;5.20;;
11924;SDS011;6022;48.768;18.608;2022-07-06T08:44:36;5.57;;;5.07;;
11924;SDS011;6022;48.768;18.608;2022-07-06T08:47:05;5.73;;;5.20;;
11924;SDS011;6022;48.768;18.608;2022-07-06T08:49:34;5.70;;;5.17;;
11924;SDS011;6022;48.768;18.608;2022-07-06T08:52:03;11.60;;;5.60;;
11924;SDS011;6022;48.768;18.608;2022-07-06T08:54:32;9.90;;;5.40;;
11924;SDS011;6022;48.768;18.608;2022-07-06T08:56:59;5.90;;;5.40;;
11924;SDS011;6022;48.768;18.608;2022-07-06T08:59:30;8.53;;;5.77;;
11924;SDS011;6022;48.768;18.608;2022-07-06T09:01:58;117.27;;;20.77;;
11924;SDS011;6022;48.768;18.608;2022-07-06T09:04:27;5.87;;;5.27;;
11924;SDS011;6022;48.768;18.608;2022-07-06T09:06:54;91.70;;;13.77;;
11924;SDS011;6022;48.768;18.608;2022-07-06T09:09:23;11.07;;;6.60;;
11924;SDS011;6022;48.768;18.608;2022-07-06T09:11:52;17.13;;;7.03;;
11924;SDS011;6022;48.768;18.608;2022-07-06T09:14:20;18.97;;;8.00;;
11924;SDS011;6022;48.768;18.608;2022-07-06T09:16:52;7.97;;;5.03;;
11924;SDS011;6022;48.768;18.608;2022-07-06T09:19:30;8.83;;;5.70;;
11924;SDS011;6022;48.768;18.608;2022-07-06T09:22:00;11.47;;;5.70;;
11924;SDS011;6022;48.768;18.608;2022-07-06T09:24:29;8.10;;;5.33;;
11924;SDS011;6022;48.768;18.608;2022-07-06T09:26:58;22.40;;;6.67;;
11924;SDS011;6022;48.768;18.608;2022-07-06T09:29:28;5.37;;;4.97;;
11924;SDS011;6022;48.768;18.608;2022-07-06T09:31:59;6.77;;;5.00;;
11924;SDS011;6022;48.768;18.608;2022-07-06T09:34:40;5.37;;;4.90;;
11924;SDS011;6022;48.768;18.608;2022-07-06T09:37:12;9.30;;;5.00;;
11924;SDS011;6022;48.768;18.608;2022-07-06T09:39:41;15.80;;;7.33;;
11924;SDS011;6022;48.768;18.608;2022-07-06T09:42:12;6.83;;;6.10;;
11924;SDS011;6022;48.768;18.608;2022-07-06T09:44:40;5.53;;;5.03;;
11924;SDS011;6022;48.768;18.608;2022-07-06T09:47:09;6.33;;;5.83;;
11924;SDS011;6022;48.768;18.608;2022-07-06T09:49:38;8.53;;;6.17;;
11924;SDS011;6022;48.768;18.608;2022-07-06T09:52:07;6.77;;;6.13;;
11924;SDS011;6022;48.768;18.608;2022-07-06T09:54:37;17.50;;;7.80;;
11924;SDS011;6022;48.768;18.608;2022-07-06T09:57:06;11.70;;;7.33;;
11924;SDS011;6022;48.768;18.608;2022-07-06T09:59:35;9.73;;;6.63;;
11924;SDS011;6022;48.768;18.608;2022-07-06T10:02:04;8.17;;;7.37;;
11924;SDS011;6022;48.768;18.608;2022-07-06T10:04:34;9.33;;;6.73;;
11924;SDS011;6022;48.768;18.608;2022-07-06T10:07:02;8.93;;;6.50;;
11924;SDS011;6022;48.768;18.608;2022-07-06T10:09:33;9.33;;;7.00;;
11924;SDS011;6022;48.768;18.608;2022-07-06T10:12:01;7.40;;;6.53;;
11924;SDS011;6022;48.768;18.608;2022-07-06T10:14:32;8.97;;;7.30;;
11924;SDS011;6022;48.768;18.608;2022-07-06T10:17:01;7.53;;;6.83;;
11924;SDS011;6022;48.768;18.608;2022-07-06T10:19:32;8.73;;;7.80;;
11924;SDS011;6022;48.768;18.608;2022-07-06T10:22:01;9.50;;;7.63;;
11924;SDS011;6022;48.768;18.608;2022-07-06T10:24:30;9.27;;;7.87;;
11924;SDS011;6022;48.768;18.608;2022-07-06T10:27:05;8.87;;;7.90;;
11924;SDS011;6022;48.768;18.608;2022-07-06T10:29:36;11.80;;;8.60;;
11924;SDS011;6022;48.768;18.608;2022-07-06T10:32:03;9.67;;;8.60;;
11924;SDS011;6022;48.768;18.608;2022-07-06T10:34:32;9.70;;;8.63;;
11924;SDS011;6022;48.768;18.608;2022-07-06T10:37:01;10.57;;;9.40;;
11924;SDS011;6022;48.768;18.608;2022-07-06T10:39:33;10.63;;;9.53;;
11924;SDS011;6022;48.768;18.608;2022-07-06T10:50:46;8.93;;;8.07;;
11924;SDS011;6022;48.768;18.608;2022-07-06T10:53:17;22.70;;;12.53;;
11924;SDS011;6022;48.768;18.608;2022-07-06T10:55:50;18.17;;;8.70;;
11924;SDS011;6022;48.768;18.608;2022-07-06T11:01:20;21.40;;;9.53;;
11924;SDS011;6022;48.768;18.608;2022-07-06T11:04:09;8.50;;;7.60;;
11924;SDS011;6022;48.768;18.608;2022-07-06T11:06:38;10.53;;;6.90;;
11924;SDS011;6022;48.768;18.608;2022-07-06T11:09:07;11.87;;;6.63;;
11924;SDS011;6022;48.768;18.608;2022-07-06T11:11:41;9.90;;;6.13;;
11924;SDS011;6022;48.768;18.608;2022-07-06T11:21:51;13.80;;;6.13;;
11924;SDS011;6022;48.768;18.608;2022-07-06T11:24:36;8.27;;;4.90;;
11924;SDS011;6022;48.768;18.608;2022-07-06T11:27:06;6.17;;;5.03;;
11924;SDS011;6022;48.768;18.608;2022-07-06T11:29:35;8.60;;;4.70;;
11924;SDS011;6022;48.768;18.608;2022-07-06T11:32:06;9.27;;;4.83;;
11924;SDS011;6022;48.768;18.608;2022-07-06T11:34:39;9.97;;;4.60;;
11924;SDS011;6022;48.768;18.608;2022-07-06T11:37:11;5.83;;;4.60;;
11924;SDS011;6022;48.768;18.608;2022-07-06T11:39:42;5.87;;;3.70;;
11924;SDS011;6022;48.768;18.608;2022-07-06T11:42:12;4.47;;;4.03;;
11924;SDS011;6022;48.768;18.608;2022-07-06T11:44:43;4.00;;;3.70;;
11924;SDS011;6022;48.768;18.608;2022-07-06T11:47:13;4.83;;;4.17;;
11924;SDS011;6022;48.768;18.608;2022-07-06T11:49:49;7.83;;;4.43;;
11924;SDS011;6022;48.768;18.608;2022-07-06T11:52:19;5.73;;;3.73;;
11924;SDS011;6022;48.768;18.608;2022-07-06T11:54:49;9.37;;;4.00;;
11924;SDS011;6022;48.768;18.608;2022-07-06T11:57:24;4.60;;;4.20;;
11924;SDS011;6022;48.768;18.608;2022-07-06T11:59:53;8.20;;;4.50;;
11924;SDS011;6022;48.768;18.608;2022-07-06T12:02:23;5.87;;;4.03;;
11924;SDS011;6022;48.768;18.608;2022-07-06T12:04:51;7.33;;;4.30;;
11924;SDS011;6022;48.768;18.608;2022-07-06T12:07:21;4.40;;;3.53;;
11924;SDS011;6022;48.768;18.608;2022-07-06T12:09:48;3.80;;;3.43;;
11924;SDS011;6022;48.768;18.608;2022-07-06T12:12:15;5.17;;;3.77;;
11924;SDS011;6022;48.768;18.608;2022-07-06T12:14:44;3.80;;;3.50;;
11924;SDS011;6022;48.768;18.608;2022-07-06T12:17:14;4.03;;;3.10;;
11924;SDS011;6022;48.768;18.608;2022-07-06T12:19:43;3.67;;;3.37;;
11924;SDS011;6022;48.768;18.608;2022-07-06T12:22:11;3.63;;;3.30;;
11924;SDS011;6022;48.768;18.608;2022-07-06T12:24:42;3.80;;;3.30;;
11924;SDS011;6022;48.768;18.608;2022-07-06T12:27:13;3.93;;;3.53;;
11924;SDS011;6022;48.768;18.608;2022-07-06T12:29:48;3.13;;;2.83;;
11924;SDS011;6022;48.768;18.608;2022-07-06T12:32:19;3.40;;;3.10;;
11924;SDS011;6022;48.768;18.608;2022-07-06T12:35:03;4.63;;;3.27;;
11924;SDS011;6022;48.768;18.608;2022-07-06T12:37:35;4.03;;;3.20;;
11924;SDS011;6022;48.768;18.608;2022-07-06T12:40:24;3.30;;;3.10;;
11924;SDS011;6022;48.768;18.608;2022-07-06T12:42:57;7.20;;;3.50;;
11924;SDS011;6022;48.768;18.608;2022-07-06T12:45:29;3.47;;;3.20;;
11924;SDS011;6022;48.768;18.608;2022-07-06T12:48:03;3.83;;;3.23;;
11924;SDS011;6022;48.768;18.608;2022-07-06T12:53:02;4.40;;;2.70;;
11924;SDS011;6022;48.768;18.608;2022-07-06T12:55:32;2.73;;;2.53;;
11924;SDS011;6022;48.768;18.608;2022-07-06T12:57:59;3.63;;;3.00;;
11924;SDS011;6022;48.768;18.608;2022-07-06T13:00:26;4.50;;;2.70;;
11924;SDS011;6022;48.768;18.608;2022-07-06T13:02:53;4.67;;;2.80;;
11924;SDS011;6022;48.768;18.608;2022-07-06T13:05:38;2.97;;;2.77;;
11924;SDS011;6022;48.768;18.608;2022-07-06T13:08:06;4.43;;;2.27;;
11924;SDS011;6022;48.768;18.608;2022-07-06T13:10:35;2.30;;;2.07;;
11924;SDS011;6022;48.768;18.608;2022-07-06T13:13:07;2.30;;;2.20;;
11924;SDS011;6022;48.768;18.608;2022-07-06T13:15:36;1.90;;;1.80;;
11924;SDS011;6022;48.768;18.608;2022-07-06T13:18:03;2.00;;;1.90;;
11924;SDS011;6022;48.768;18.608;2022-07-06T13:20:38;1.80;;;1.67;;
11924;SDS011;6022;48.768;18.608;2022-07-06T13:23:08;3.27;;;2.33;;
11924;SDS011;6022;48.768;18.608;2022-07-06T13:25:36;3.57;;;1.70;;
11924;SDS011;6022;48.768;18.608;2022-07-06T13:28:04;2.23;;;2.00;;
11924;SDS011;6022;48.768;18.608;2022-07-06T13:30:32;2.00;;;1.90;;
11924;SDS011;6022;48.768;18.608;2022-07-06T13:32:59;1.70;;;1.50;;
11924;SDS011;6022;48.768;18.608;2022-07-06T13:35:27;1.67;;;1.43;;
11924;SDS011;6022;48.768;18.608;2022-07-06T13:37:54;1.67;;;1.57;;
11924;SDS011;6022;48.768;18.608;2022-07-06T13:40:22;1.40;;;1.30;;
11924;SDS011;6022;48.768;18.608;2022-07-06T13:42:50;3.07;;;1.80;;
11924;SDS011;6022;48.768;18.608;2022-07-06T13:45:21;4.50;;;2.00;;
11924;SDS011;6022;48.768;18.608;2022-07-06T13:47:49;2.20;;;1.87;;
11924;SDS011;6022;48.768;18.608;2022-07-06T13:50:16;1.27;;;1.17;;
11924;SDS011;6022;48.768;18.608;2022-07-06T13:52:44;0.80;;;0.80;;
11924;SDS011;6022;48.768;18.608;2022-07-06T13:55:12;1.13;;;1.00;;
11924;SDS011;6022;48.768;18.608;2022-07-06T13:57:39;1.10;;;1.10;;
11924;SDS011;6022;48.768;18.608;2022-07-06T14:00:08;1.00;;;1.00;;
11924;SDS011;6022;48.768;18.608;2022-07-06T14:02:39;0.90;;;0.90;;
11924;SDS011;6022;48.768;18.608;2022-07-06T14:05:07;1.13;;;1.10;;
11924;SDS011;6022;48.768;18.608;2022-07-06T14:07:37;1.70;;;1.03;;
11924;SDS011;6022;48.768;18.608;2022-07-06T14:10:05;5.17;;;1.30;;
11924;SDS011;6022;48.768;18.608;2022-07-06T14:12:32;2.23;;;2.03;;
11924;SDS011;6022;48.768;18.608;2022-07-06T14:15:00;1.13;;;1.00;;
11924;SDS011;6022;48.768;18.608;2022-07-06T14:17:27;1.00;;;0.80;;
11924;SDS011;6022;48.768;18.608;2022-07-06T14:19:55;3.90;;;1.50;;
11924;SDS011;6022;48.768;18.608;2022-07-06T14:22:22;1.30;;;1.20;;
11924;SDS011;6022;48.768;18.608;2022-07-06T14:24:50;0.90;;;0.90;;
11924;SDS011;6022;48.768;18.608;2022-07-06T14:27:18;1.40;;;1.30;;
11924;SDS011;6022;48.768;18.608;2022-07-06T14:29:45;2.73;;;1.47;;
11924;SDS011;6022;48.768;18.608;2022-07-06T14:32:15;5.40;;;2.00;;
11924;SDS011;6022;48.768;18.608;2022-07-06T14:34:42;1.53;;;1.20;;
11924;SDS011;6022;48.768;18.608;2022-07-06T14:37:10;2.67;;;1.53;;
11924;SDS011;6022;48.768;18.608;2022-07-06T14:39:45;1.90;;;1.20;;
11924;SDS011;6022;48.768;18.608;2022-07-06T14:42:12;1.60;;;1.00;;
11924;SDS011;6022;48.768;18.608;2022-07-06T14:44:39;3.43;;;1.67;;
11924;SDS011;6022;48.768;18.608;2022-07-06T14:47:08;4.03;;;1.43;;
11924;SDS011;6022;48.768;18.608;2022-07-06T14:49:35;1.90;;;1.40;;
11924;SDS011;6022;48.768;18.608;2022-07-06T14:52:02;3.83;;;3.40;;
11924;SDS011;6022;48.768;18.608;2022-07-06T14:54:30;3.23;;;2.83;;
11924;SDS011;6022;48.768;18.608;2022-07-06T14:56:57;3.20;;;1.20;;
11924;SDS011;6022;48.768;18.608;2022-07-06T14:59:25;3.13;;;1.20;;
11924;SDS011;6022;48.768;18.608;2022-07-06T15:01:52;1.43;;;1.03;;
11924;SDS011;6022;48.768;18.608;2022-07-06T15:04:20;1.30;;;1.20;;
11924;SDS011;6022;48.768;18.608;2022-07-06T15:06:49;7.63;;;1.40;;
11924;SDS011;6022;48.768;18.608;2022-07-06T15:09:20;1.40;;;1.10;;
11924;SDS011;6022;48.768;18.608;2022-07-06T15:11:48;2.00;;;1.20;;
11924;SDS011;6022;48.768;18.608;2022-07-06T15:14:16;3.13;;;0.90;;
11924;SDS011;6022;48.768;18.608;2022-07-06T15:16:44;3.23;;;1.40;;
11924;SDS011;6022;48.768;18.608;2022-07-06T15:19:12;3.27;;;1.30;;
11924;SDS011;6022;48.768;18.608;2022-07-06T15:21:39;1.07;;;0.90;;